sensor_id;sensor_type;location;lat;lon;timestamp;P1;durP1;ratioP1;P2;durP2;ratioP2
56455;SDS011;42354;53.218;6.564;2023-05-07T00:01:56;73.55;;;37.08;;
56455;SDS011;42354;53.218;6.564;2023-05-07T00:04:22;64.97;;;36.08;;
56455;SDS011;42354;53.218;6.564;2023-05-07T00:06:47;68.20;;;36.80;;
56455;SDS011;42354;53.218;6.564;2023-05-07T00:09:13;70.95;;;39.60;;
56455;SDS011;42354;53.218;6.564;2023-05-07T00:11:38;68.53;;;36.75;;
56455;SDS011;42354;53.218;6.564;2023-05-07T00:14:03;71.47;;;40.30;;
56455;SDS011;42354;53.218;6.564;2023-05-07T00:16:31;75.97;;;39.90;;
56455;SDS011;42354;53.218;6.564;2023-05-07T00:18:56;79.85;;;42.13;;
56455;SDS011;42354;53.218;6.564;2023-05-07T00:21:21;71.00;;;38.55;;
56455;SDS011;42354;53.218;6.564;2023-05-07T00:23:47;66.00;;;36.30;;
56455;SDS011;42354;53.218;6.564;2023-05-07T00:26:12;69.88;;;38.78;;
56455;SDS011;42354;53.218;6.564;2023-05-07T00:28:38;57.75;;;33.85;;
56455;SDS011;42354;53.218;6.564;2023-05-07T00:31:04;71.38;;;38.42;;
56455;SDS011;42354;53.218;6.564;2023-05-07T00:33:29;68.63;;;37.97;;
56455;SDS011;42354;53.218;6.564;2023-05-07T00:35:55;64.95;;;36.22;;
56455;SDS011;42354;53.218;6.564;2023-05-07T00:38:20;79.32;;;41.45;;
56455;SDS011;42354;53.218;6.564;2023-05-07T00:40:45;71.25;;;38.88;;
56455;SDS011;42354;53.218;6.564;2023-05-07T00:43:11;70.35;;;37.58;;
56455;SDS011;42354;53.218;6.564;2023-05-07T00:45:37;68.82;;;37.10;;
56455;SDS011;42354;53.218;6.564;2023-05-07T00:48:03;78.43;;;39.38;;
56455;SDS011;42354;53.218;6.564;2023-05-07T00:50:30;80.85;;;39.58;;
56455;SDS011;42354;53.218;6.564;2023-05-07T00:52:56;71.72;;;39.47;;
56455;SDS011;42354;53.218;6.564;2023-05-07T00:55:22;71.80;;;38.00;;
56455;SDS011;42354;53.218;6.564;2023-05-07T00:57:48;71.43;;;38.80;;
56455;SDS011;42354;53.218;6.564;2023-05-07T01:00:16;62.95;;;34.38;;
56455;SDS011;42354;53.218;6.564;2023-05-07T01:02:42;68.13;;;35.70;;
56455;SDS011;42354;53.218;6.564;2023-05-07T01:05:09;71.18;;;39.25;;
56455;SDS011;42354;53.218;6.564;2023-05-07T01:07:36;72.68;;;36.42;;
56455;SDS011;42354;53.218;6.564;2023-05-07T01:10:05;61.60;;;34.83;;
56455;SDS011;42354;53.218;6.564;2023-05-07T01:12:32;68.68;;;36.20;;
56455;SDS011;42354;53.218;6.564;2023-05-07T01:14:59;64.10;;;35.03;;
56455;SDS011;42354;53.218;6.564;2023-05-07T01:17:25;68.72;;;38.35;;
56455;SDS011;42354;53.218;6.564;2023-05-07T01:19:50;69.05;;;37.45;;
56455;SDS011;42354;53.218;6.564;2023-05-07T01:22:23;65.35;;;37.17;;
56455;SDS011;42354;53.218;6.564;2023-05-07T01:24:55;66.50;;;36.13;;
56455;SDS011;42354;53.218;6.564;2023-05-07T01:27:21;67.95;;;35.83;;
56455;SDS011;42354;53.218;6.564;2023-05-07T01:29:46;70.32;;;37.55;;
56455;SDS011;42354;53.218;6.564;2023-05-07T01:32:12;69.65;;;39.08;;
56455;SDS011;42354;53.218;6.564;2023-05-07T01:34:39;65.72;;;36.88;;
56455;SDS011;42354;53.218;6.564;2023-05-07T01:37:05;69.28;;;37.10;;
56455;SDS011;42354;53.218;6.564;2023-05-07T01:39:31;61.25;;;36.60;;
56455;SDS011;42354;53.218;6.564;2023-05-07T01:41:56;67.15;;;37.15;;
56455;SDS011;42354;53.218;6.564;2023-05-07T01:44:24;61.60;;;35.35;;
56455;SDS011;42354;53.218;6.564;2023-05-07T01:46:50;66.07;;;34.63;;
56455;SDS011;42354;53.218;6.564;2023-05-07T01:49:16;60.90;;;33.03;;
56455;SDS011;42354;53.218;6.564;2023-05-07T01:51:42;59.25;;;34.40;;
56455;SDS011;42354;53.218;6.564;2023-05-07T01:54:08;61.10;;;34.47;;
56455;SDS011;42354;53.218;6.564;2023-05-07T01:56:34;57.38;;;32.63;;
56455;SDS011;42354;53.218;6.564;2023-05-07T01:59:00;66.05;;;35.42;;
56455;SDS011;42354;53.218;6.564;2023-05-07T02:01:25;63.55;;;34.65;;
56455;SDS011;42354;53.218;6.564;2023-05-07T02:03:51;62.75;;;33.70;;
56455;SDS011;42354;53.218;6.564;2023-05-07T02:06:16;63.50;;;34.78;;
56455;SDS011;42354;53.218;6.564;2023-05-07T02:08:42;65.63;;;35.38;;
56455;SDS011;42354;53.218;6.564;2023-05-07T02:11:07;68.22;;;34.90;;
56455;SDS011;42354;53.218;6.564;2023-05-07T02:13:33;66.85;;;35.47;;
56455;SDS011;42354;53.218;6.564;2023-05-07T02:15:59;68.40;;;34.63;;
56455;SDS011;42354;53.218;6.564;2023-05-07T02:18:25;70.32;;;37.20;;
56455;SDS011;42354;53.218;6.564;2023-05-07T02:20:50;65.50;;;33.63;;
56455;SDS011;42354;53.218;6.564;2023-05-07T02:23:16;68.35;;;36.85;;
56455;SDS011;42354;53.218;6.564;2023-05-07T02:25:41;65.97;;;34.33;;
56455;SDS011;42354;53.218;6.564;2023-05-07T02:28:06;74.63;;;36.10;;
56455;SDS011;42354;53.218;6.564;2023-05-07T02:30:32;69.72;;;36.67;;
56455;SDS011;42354;53.218;6.564;2023-05-07T02:32:57;60.03;;;33.05;;
56455;SDS011;42354;53.218;6.564;2023-05-07T02:35:24;78.57;;;36.83;;
56455;SDS011;42354;53.218;6.564;2023-05-07T02:37:49;67.93;;;36.38;;
56455;SDS011;42354;53.218;6.564;2023-05-07T02:40:15;65.25;;;36.22;;
56455;SDS011;42354;53.218;6.564;2023-05-07T02:42:40;68.97;;;36.10;;
56455;SDS011;42354;53.218;6.564;2023-05-07T02:45:06;67.70;;;35.13;;
56455;SDS011;42354;53.218;6.564;2023-05-07T02:47:32;68.63;;;35.22;;
56455;SDS011;42354;53.218;6.564;2023-05-07T02:49:57;68.15;;;36.08;;
56455;SDS011;42354;53.218;6.564;2023-05-07T02:52:22;71.07;;;36.90;;
56455;SDS011;42354;53.218;6.564;2023-05-07T02:54:48;72.97;;;37.70;;
56455;SDS011;42354;53.218;6.564;2023-05-07T02:57:13;66.68;;;35.53;;
56455;SDS011;42354;53.218;6.564;2023-05-07T02:59:39;70.95;;;37.08;;
56455;SDS011;42354;53.218;6.564;2023-05-07T03:02:04;62.42;;;36.45;;
56455;SDS011;42354;53.218;6.564;2023-05-07T03:04:30;66.70;;;35.72;;
56455;SDS011;42354;53.218;6.564;2023-05-07T03:06:55;69.07;;;36.08;;
56455;SDS011;42354;53.218;6.564;2023-05-07T03:09:21;73.25;;;37.58;;
56455;SDS011;42354;53.218;6.564;2023-05-07T03:11:46;73.30;;;37.20;;
56455;SDS011;42354;53.218;6.564;2023-05-07T03:14:15;67.20;;;35.08;;
56455;SDS011;42354;53.218;6.564;2023-05-07T03:16:40;66.10;;;35.63;;
56455;SDS011;42354;53.218;6.564;2023-05-07T03:19:06;74.38;;;38.70;;
56455;SDS011;42354;53.218;6.564;2023-05-07T03:21:31;71.30;;;36.47;;
56455;SDS011;42354;53.218;6.564;2023-05-07T03:23:58;65.95;;;36.03;;
56455;SDS011;42354;53.218;6.564;2023-05-07T03:26:24;65.32;;;35.30;;
56455;SDS011;42354;53.218;6.564;2023-05-07T03:28:50;68.65;;;36.88;;
56455;SDS011;42354;53.218;6.564;2023-05-07T03:31:16;72.80;;;37.92;;
56455;SDS011;42354;53.218;6.564;2023-05-07T03:33:51;70.05;;;36.58;;
56455;SDS011;42354;53.218;6.564;2023-05-07T03:36:21;66.07;;;35.45;;
56455;SDS011;42354;53.218;6.564;2023-05-07T03:38:48;65.00;;;34.78;;
56455;SDS011;42354;53.218;6.564;2023-05-07T03:41:14;63.05;;;34.50;;
56455;SDS011;42354;53.218;6.564;2023-05-07T03:43:39;74.97;;;37.75;;
56455;SDS011;42354;53.218;6.564;2023-05-07T03:46:05;71.75;;;37.67;;
56455;SDS011;42354;53.218;6.564;2023-05-07T03:48:30;65.05;;;34.65;;
56455;SDS011;42354;53.218;6.564;2023-05-07T03:50:56;66.65;;;35.45;;
56455;SDS011;42354;53.218;6.564;2023-05-07T03:53:23;68.35;;;36.40;;
56455;SDS011;42354;53.218;6.564;2023-05-07T03:55:48;72.78;;;36.75;;
56455;SDS011;42354;53.218;6.564;2023-05-07T03:58:14;66.72;;;35.22;;
56455;SDS011;42354;53.218;6.564;2023-05-07T04:00:40;69.68;;;35.80;;
56455;SDS011;42354;53.218;6.564;2023-05-07T04:03:05;63.47;;;35.00;;
56455;SDS011;42354;53.218;6.564;2023-05-07T04:05:31;64.15;;;34.33;;
56455;SDS011;42354;53.218;6.564;2023-05-07T04:07:58;71.45;;;37.78;;
56455;SDS011;42354;53.218;6.564;2023-05-07T04:10:24;67.40;;;36.03;;
56455;SDS011;42354;53.218;6.564;2023-05-07T04:12:49;62.65;;;35.35;;
56455;SDS011;42354;53.218;6.564;2023-05-07T04:15:15;68.82;;;36.45;;
56455;SDS011;42354;53.218;6.564;2023-05-07T04:17:40;66.45;;;36.65;;
56455;SDS011;42354;53.218;6.564;2023-05-07T04:20:08;67.45;;;36.83;;
56455;SDS011;42354;53.218;6.564;2023-05-07T04:22:34;71.47;;;37.13;;
56455;SDS011;42354;53.218;6.564;2023-05-07T04:24:59;74.47;;;36.72;;
56455;SDS011;42354;53.218;6.564;2023-05-07T04:27:25;72.28;;;37.25;;
56455;SDS011;42354;53.218;6.564;2023-05-07T04:29:51;69.80;;;36.58;;
56455;SDS011;42354;53.218;6.564;2023-05-07T04:32:16;64.65;;;34.83;;
56455;SDS011;42354;53.218;6.564;2023-05-07T04:34:42;63.88;;;34.53;;
56455;SDS011;42354;53.218;6.564;2023-05-07T04:37:08;68.35;;;34.15;;
56455;SDS011;42354;53.218;6.564;2023-05-07T04:39:34;66.07;;;34.65;;
56455;SDS011;42354;53.218;6.564;2023-05-07T04:42:00;59.58;;;34.13;;
56455;SDS011;42354;53.218;6.564;2023-05-07T04:44:25;66.10;;;34.58;;
56455;SDS011;42354;53.218;6.564;2023-05-07T04:46:51;68.13;;;34.85;;
56455;SDS011;42354;53.218;6.564;2023-05-07T04:49:16;59.78;;;33.67;;
56455;SDS011;42354;53.218;6.564;2023-05-07T04:51:42;58.55;;;32.80;;
56455;SDS011;42354;53.218;6.564;2023-05-07T04:54:08;60.67;;;33.80;;
56455;SDS011;42354;53.218;6.564;2023-05-07T04:56:33;58.15;;;33.83;;
56455;SDS011;42354;53.218;6.564;2023-05-07T04:58:58;57.65;;;32.17;;
56455;SDS011;42354;53.218;6.564;2023-05-07T05:01:24;63.35;;;32.20;;
56455;SDS011;42354;53.218;6.564;2023-05-07T05:03:49;62.83;;;32.65;;
56455;SDS011;42354;53.218;6.564;2023-05-07T05:06:15;56.13;;;31.65;;
56455;SDS011;42354;53.218;6.564;2023-05-07T05:08:40;56.22;;;32.47;;
56455;SDS011;42354;53.218;6.564;2023-05-07T05:11:08;59.20;;;32.08;;
56455;SDS011;42354;53.218;6.564;2023-05-07T05:13:33;60.25;;;33.33;;
56455;SDS011;42354;53.218;6.564;2023-05-07T05:15:59;58.72;;;31.90;;
56455;SDS011;42354;53.218;6.564;2023-05-07T05:18:24;55.40;;;31.92;;
56455;SDS011;42354;53.218;6.564;2023-05-07T05:20:51;58.63;;;32.38;;
56455;SDS011;42354;53.218;6.564;2023-05-07T05:23:16;56.00;;;31.50;;
56455;SDS011;42354;53.218;6.564;2023-05-07T05:25:42;57.25;;;31.08;;
56455;SDS011;42354;53.218;6.564;2023-05-07T05:28:07;55.30;;;31.55;;
56455;SDS011;42354;53.218;6.564;2023-05-07T05:30:32;54.42;;;30.73;;
56455;SDS011;42354;53.218;6.564;2023-05-07T05:32:58;55.00;;;31.13;;
56455;SDS011;42354;53.218;6.564;2023-05-07T05:35:23;50.35;;;29.98;;
56455;SDS011;42354;53.218;6.564;2023-05-07T05:37:51;54.80;;;31.88;;
56455;SDS011;42354;53.218;6.564;2023-05-07T05:40:17;56.20;;;30.60;;
56455;SDS011;42354;53.218;6.564;2023-05-07T05:42:42;52.88;;;29.52;;
56455;SDS011;42354;53.218;6.564;2023-05-07T05:45:08;58.08;;;31.20;;
56455;SDS011;42354;53.218;6.564;2023-05-07T05:47:34;50.88;;;29.85;;
56455;SDS011;42354;53.218;6.564;2023-05-07T05:49:59;56.55;;;30.92;;
56455;SDS011;42354;53.218;6.564;2023-05-07T05:52:26;51.35;;;30.08;;
56455;SDS011;42354;53.218;6.564;2023-05-07T05:54:52;49.92;;;29.13;;
56455;SDS011;42354;53.218;6.564;2023-05-07T05:57:17;53.60;;;29.88;;
56455;SDS011;42354;53.218;6.564;2023-05-07T05:59:43;50.92;;;30.75;;
56455;SDS011;42354;53.218;6.564;2023-05-07T06:02:08;53.17;;;29.70;;
56455;SDS011;42354;53.218;6.564;2023-05-07T06:04:34;48.92;;;28.88;;
56455;SDS011;42354;53.218;6.564;2023-05-07T06:06:59;51.17;;;29.85;;
56455;SDS011;42354;53.218;6.564;2023-05-07T06:09:25;50.55;;;30.02;;
56455;SDS011;42354;53.218;6.564;2023-05-07T06:11:51;47.38;;;28.00;;
56455;SDS011;42354;53.218;6.564;2023-05-07T06:14:16;48.10;;;28.88;;
56455;SDS011;42354;53.218;6.564;2023-05-07T06:16:42;47.45;;;28.65;;
56455;SDS011;42354;53.218;6.564;2023-05-07T06:19:07;49.53;;;29.92;;
56455;SDS011;42354;53.218;6.564;2023-05-07T06:21:32;48.40;;;28.55;;
56455;SDS011;42354;53.218;6.564;2023-05-07T06:23:58;50.47;;;28.70;;
56455;SDS011;42354;53.218;6.564;2023-05-07T06:26:23;49.28;;;28.38;;
56455;SDS011;42354;53.218;6.564;2023-05-07T06:28:49;46.63;;;28.40;;
56455;SDS011;42354;53.218;6.564;2023-05-07T06:31:15;45.40;;;28.20;;
56455;SDS011;42354;53.218;6.564;2023-05-07T06:33:41;49.38;;;29.15;;
56455;SDS011;42354;53.218;6.564;2023-05-07T06:36:10;50.38;;;29.67;;
56455;SDS011;42354;53.218;6.564;2023-05-07T06:38:36;47.95;;;29.45;;
56455;SDS011;42354;53.218;6.564;2023-05-07T06:41:01;49.00;;;30.38;;
56455;SDS011;42354;53.218;6.564;2023-05-07T06:43:27;50.88;;;30.10;;
56455;SDS011;42354;53.218;6.564;2023-05-07T06:45:52;46.60;;;30.15;;
56455;SDS011;42354;53.218;6.564;2023-05-07T06:48:18;52.05;;;31.02;;
56455;SDS011;42354;53.218;6.564;2023-05-07T06:50:43;51.30;;;30.65;;
56455;SDS011;42354;53.218;6.564;2023-05-07T06:53:08;49.72;;;30.40;;
56455;SDS011;42354;53.218;6.564;2023-05-07T06:55:34;46.28;;;28.13;;
56455;SDS011;42354;53.218;6.564;2023-05-07T06:57:59;48.45;;;29.15;;
56455;SDS011;42354;53.218;6.564;2023-05-07T07:00:26;46.15;;;28.40;;
56455;SDS011;42354;53.218;6.564;2023-05-07T07:02:53;48.80;;;29.60;;
56455;SDS011;42354;53.218;6.564;2023-05-07T07:05:18;42.40;;;27.02;;
56455;SDS011;42354;53.218;6.564;2023-05-07T07:07:44;43.40;;;27.40;;
56455;SDS011;42354;53.218;6.564;2023-05-07T07:10:09;46.63;;;26.92;;
56455;SDS011;42354;53.218;6.564;2023-05-07T07:12:35;44.40;;;27.63;;
56455;SDS011;42354;53.218;6.564;2023-05-07T07:15:00;49.90;;;28.27;;
56455;SDS011;42354;53.218;6.564;2023-05-07T07:17:25;44.67;;;25.60;;
56455;SDS011;42354;53.218;6.564;2023-05-07T07:19:51;44.38;;;25.40;;
56455;SDS011;42354;53.218;6.564;2023-05-07T07:22:16;44.45;;;26.45;;
56455;SDS011;42354;53.218;6.564;2023-05-07T07:24:42;45.75;;;27.02;;
56455;SDS011;42354;53.218;6.564;2023-05-07T07:27:07;44.70;;;26.45;;
56455;SDS011;42354;53.218;6.564;2023-05-07T07:29:32;45.60;;;26.15;;
56455;SDS011;42354;53.218;6.564;2023-05-07T07:31:58;46.38;;;26.65;;
56455;SDS011;42354;53.218;6.564;2023-05-07T07:34:23;46.28;;;26.75;;
56455;SDS011;42354;53.218;6.564;2023-05-07T07:36:49;51.13;;;27.58;;
56455;SDS011;42354;53.218;6.564;2023-05-07T07:39:14;44.28;;;26.90;;
56455;SDS011;42354;53.218;6.564;2023-05-07T07:41:40;44.47;;;26.48;;
56455;SDS011;42354;53.218;6.564;2023-05-07T07:44:05;44.83;;;26.23;;
56455;SDS011;42354;53.218;6.564;2023-05-07T07:46:32;46.75;;;27.08;;
56455;SDS011;42354;53.218;6.564;2023-05-07T07:48:58;44.65;;;26.35;;
56455;SDS011;42354;53.218;6.564;2023-05-07T07:51:24;42.33;;;25.98;;
56455;SDS011;42354;53.218;6.564;2023-05-07T07:53:50;48.72;;;28.48;;
56455;SDS011;42354;53.218;6.564;2023-05-07T07:56:15;44.35;;;26.30;;
56455;SDS011;42354;53.218;6.564;2023-05-07T07:58:41;46.10;;;27.13;;
56455;SDS011;42354;53.218;6.564;2023-05-07T08:01:06;40.53;;;25.85;;
56455;SDS011;42354;53.218;6.564;2023-05-07T08:03:32;45.58;;;26.98;;
56455;SDS011;42354;53.218;6.564;2023-05-07T08:05:57;41.00;;;25.67;;
56455;SDS011;42354;53.218;6.564;2023-05-07T08:08:23;46.92;;;25.52;;
56455;SDS011;42354;53.218;6.564;2023-05-07T08:10:48;43.50;;;26.88;;
56455;SDS011;42354;53.218;6.564;2023-05-07T08:13:15;43.65;;;26.15;;
56455;SDS011;42354;53.218;6.564;2023-05-07T08:15:41;44.80;;;26.73;;
56455;SDS011;42354;53.218;6.564;2023-05-07T08:18:06;43.67;;;26.38;;
56455;SDS011;42354;53.218;6.564;2023-05-07T08:20:32;44.17;;;25.50;;
56455;SDS011;42354;53.218;6.564;2023-05-07T08:23:01;42.80;;;25.23;;
56455;SDS011;42354;53.218;6.564;2023-05-07T08:25:26;47.75;;;26.27;;
56455;SDS011;42354;53.218;6.564;2023-05-07T08:27:52;43.80;;;26.70;;
56455;SDS011;42354;53.218;6.564;2023-05-07T08:30:17;41.13;;;25.48;;
56455;SDS011;42354;53.218;6.564;2023-05-07T08:32:44;41.67;;;25.52;;
56455;SDS011;42354;53.218;6.564;2023-05-07T08:35:09;42.97;;;25.98;;
56455;SDS011;42354;53.218;6.564;2023-05-07T08:37:35;38.72;;;24.90;;
56455;SDS011;42354;53.218;6.564;2023-05-07T08:40:00;39.47;;;24.77;;
56455;SDS011;42354;53.218;6.564;2023-05-07T08:42:26;43.47;;;24.50;;
56455;SDS011;42354;53.218;6.564;2023-05-07T08:44:53;47.05;;;25.17;;
56455;SDS011;42354;53.218;6.564;2023-05-07T08:47:22;38.47;;;24.58;;
56455;SDS011;42354;53.218;6.564;2023-05-07T08:49:54;40.17;;;25.48;;
56455;SDS011;42354;53.218;6.564;2023-05-07T08:52:20;40.17;;;25.15;;
56455;SDS011;42354;53.218;6.564;2023-05-07T08:54:45;42.50;;;25.38;;
56455;SDS011;42354;53.218;6.564;2023-05-07T08:57:11;39.00;;;25.55;;
56455;SDS011;42354;53.218;6.564;2023-05-07T08:59:36;44.45;;;24.88;;
56455;SDS011;42354;53.218;6.564;2023-05-07T09:02:02;37.72;;;24.13;;
56455;SDS011;42354;53.218;6.564;2023-05-07T09:04:27;43.38;;;25.02;;
56455;SDS011;42354;53.218;6.564;2023-05-07T09:06:53;37.97;;;23.02;;
56455;SDS011;42354;53.218;6.564;2023-05-07T09:09:18;37.95;;;23.67;;
56455;SDS011;42354;53.218;6.564;2023-05-07T09:11:43;38.55;;;23.98;;
56455;SDS011;42354;53.218;6.564;2023-05-07T09:14:09;40.67;;;24.10;;
56455;SDS011;42354;53.218;6.564;2023-05-07T09:16:34;36.78;;;23.65;;
56455;SDS011;42354;53.218;6.564;2023-05-07T09:19:00;42.53;;;24.92;;
56455;SDS011;42354;53.218;6.564;2023-05-07T09:21:26;39.63;;;24.25;;
56455;SDS011;42354;53.218;6.564;2023-05-07T09:23:53;40.75;;;24.23;;
56455;SDS011;42354;53.218;6.564;2023-05-07T09:26:23;37.30;;;23.52;;
56455;SDS011;42354;53.218;6.564;2023-05-07T09:28:51;37.53;;;25.05;;
56455;SDS011;42354;53.218;6.564;2023-05-07T09:31:17;38.05;;;23.33;;
56455;SDS011;42354;53.218;6.564;2023-05-07T09:33:42;39.78;;;24.10;;
56455;SDS011;42354;53.218;6.564;2023-05-07T09:36:08;36.63;;;23.92;;
56455;SDS011;42354;53.218;6.564;2023-05-07T09:38:35;36.28;;;23.60;;
56455;SDS011;42354;53.218;6.564;2023-05-07T09:41:06;38.90;;;24.50;;
56455;SDS011;42354;53.218;6.564;2023-05-07T09:43:33;36.25;;;24.42;;
56455;SDS011;42354;53.218;6.564;2023-05-07T09:46:07;39.92;;;24.23;;
56455;SDS011;42354;53.218;6.564;2023-05-07T09:48:38;34.92;;;23.80;;
56455;SDS011;42354;53.218;6.564;2023-05-07T09:53:37;35.55;;;23.60;;
56455;SDS011;42354;53.218;6.564;2023-05-07T09:56:03;39.78;;;24.77;;
56455;SDS011;42354;53.218;6.564;2023-05-07T09:58:30;39.63;;;22.65;;
56455;SDS011;42354;53.218;6.564;2023-05-07T10:00:58;35.55;;;22.67;;
56455;SDS011;42354;53.218;6.564;2023-05-07T10:03:24;33.13;;;22.33;;
56455;SDS011;42354;53.218;6.564;2023-05-07T10:05:53;33.70;;;20.98;;
56455;SDS011;42354;53.218;6.564;2023-05-07T10:08:19;32.90;;;22.35;;
56455;SDS011;42354;53.218;6.564;2023-05-07T10:10:45;32.88;;;22.17;;
56455;SDS011;42354;53.218;6.564;2023-05-07T10:13:12;31.27;;;21.05;;
56455;SDS011;42354;53.218;6.564;2023-05-07T10:15:38;37.97;;;21.58;;
56455;SDS011;42354;53.218;6.564;2023-05-07T10:18:04;30.70;;;21.05;;
56455;SDS011;42354;53.218;6.564;2023-05-07T10:20:33;33.40;;;21.63;;
56455;SDS011;42354;53.218;6.564;2023-05-07T10:23:01;35.35;;;22.55;;
56455;SDS011;42354;53.218;6.564;2023-05-07T10:25:30;32.90;;;21.70;;
56455;SDS011;42354;53.218;6.564;2023-05-07T10:27:57;32.35;;;21.92;;
56455;SDS011;42354;53.218;6.564;2023-05-07T10:33:26;30.63;;;20.42;;
56455;SDS011;42354;53.218;6.564;2023-05-07T10:35:55;33.80;;;21.45;;
56455;SDS011;42354;53.218;6.564;2023-05-07T10:38:24;31.85;;;21.25;;
56455;SDS011;42354;53.218;6.564;2023-05-07T10:40:52;31.08;;;21.73;;
56455;SDS011;42354;53.218;6.564;2023-05-07T10:43:18;32.90;;;20.85;;
56455;SDS011;42354;53.218;6.564;2023-05-07T10:45:45;30.55;;;19.90;;
56455;SDS011;42354;53.218;6.564;2023-05-07T10:51:28;31.38;;;21.25;;
56455;SDS011;42354;53.218;6.564;2023-05-07T10:56:39;31.35;;;20.35;;
56455;SDS011;42354;53.218;6.564;2023-05-07T11:02:07;28.90;;;19.90;;
56455;SDS011;42354;53.218;6.564;2023-05-07T11:04:34;27.85;;;19.27;;
56455;SDS011;42354;53.218;6.564;2023-05-07T11:12:16;23.42;;;18.02;;
56455;SDS011;42354;53.218;6.564;2023-05-07T11:15:00;23.98;;;17.90;;
56455;SDS011;42354;53.218;6.564;2023-05-07T11:17:25;24.35;;;18.17;;
56455;SDS011;42354;53.218;6.564;2023-05-07T11:19:53;24.17;;;18.20;;
56455;SDS011;42354;53.218;6.564;2023-05-07T11:25:05;26.13;;;17.67;;
56455;SDS011;42354;53.218;6.564;2023-05-07T11:27:32;25.88;;;19.00;;
56455;SDS011;42354;53.218;6.564;2023-05-07T11:29:57;24.45;;;17.75;;
56455;SDS011;42354;53.218;6.564;2023-05-07T11:32:28;24.23;;;18.20;;
56455;SDS011;42354;53.218;6.564;2023-05-07T11:34:54;22.15;;;18.45;;
56455;SDS011;42354;53.218;6.564;2023-05-07T11:37:21;23.55;;;18.38;;
56455;SDS011;42354;53.218;6.564;2023-05-07T11:39:47;20.90;;;17.23;;
56455;SDS011;42354;53.218;6.564;2023-05-07T11:44:55;22.50;;;17.25;;
56455;SDS011;42354;53.218;6.564;2023-05-07T11:47:21;21.30;;;17.15;;
56455;SDS011;42354;53.218;6.564;2023-05-07T11:49:50;23.08;;;17.85;;
56455;SDS011;42354;53.218;6.564;2023-05-07T11:52:17;23.73;;;18.38;;
56455;SDS011;42354;53.218;6.564;2023-05-07T11:57:20;25.23;;;17.92;;
56455;SDS011;42354;53.218;6.564;2023-05-07T11:59:46;20.67;;;16.90;;
56455;SDS011;42354;53.218;6.564;2023-05-07T12:02:17;23.73;;;16.73;;
56455;SDS011;42354;53.218;6.564;2023-05-07T12:04:43;19.30;;;16.40;;
56455;SDS011;42354;53.218;6.564;2023-05-07T12:07:12;21.88;;;16.25;;
56455;SDS011;42354;53.218;6.564;2023-05-07T12:09:38;18.38;;;15.75;;
56455;SDS011;42354;53.218;6.564;2023-05-07T12:12:05;23.05;;;16.15;;
56455;SDS011;42354;53.218;6.564;2023-05-07T12:14:30;20.52;;;16.58;;
56455;SDS011;42354;53.218;6.564;2023-05-07T12:16:57;20.98;;;16.38;;
56455;SDS011;42354;53.218;6.564;2023-05-07T12:19:24;19.83;;;16.42;;
56455;SDS011;42354;53.218;6.564;2023-05-07T12:21:50;23.38;;;16.42;;
56455;SDS011;42354;53.218;6.564;2023-05-07T12:24:15;20.83;;;16.90;;
56455;SDS011;42354;53.218;6.564;2023-05-07T12:26:41;20.27;;;16.23;;
56455;SDS011;42354;53.218;6.564;2023-05-07T12:29:07;21.33;;;16.13;;
56455;SDS011;42354;53.218;6.564;2023-05-07T12:31:32;20.00;;;17.08;;
56455;SDS011;42354;53.218;6.564;2023-05-07T12:33:58;18.70;;;15.05;;
56455;SDS011;42354;53.218;6.564;2023-05-07T12:36:25;19.60;;;16.42;;
56455;SDS011;42354;53.218;6.564;2023-05-07T12:38:50;19.10;;;15.48;;
56455;SDS011;42354;53.218;6.564;2023-05-07T12:41:16;17.92;;;14.65;;
56455;SDS011;42354;53.218;6.564;2023-05-07T12:43:44;20.92;;;16.27;;
56455;SDS011;42354;53.218;6.564;2023-05-07T12:46:11;21.50;;;17.00;;
56455;SDS011;42354;53.218;6.564;2023-05-07T12:48:38;22.83;;;17.48;;
56455;SDS011;42354;53.218;6.564;2023-05-07T12:51:09;19.58;;;16.25;;
56455;SDS011;42354;53.218;6.564;2023-05-07T12:53:39;18.25;;;15.95;;
56455;SDS011;42354;53.218;6.564;2023-05-07T12:56:09;18.63;;;15.73;;
56455;SDS011;42354;53.218;6.564;2023-05-07T12:58:34;17.85;;;14.90;;
56455;SDS011;42354;53.218;6.564;2023-05-07T13:01:04;16.45;;;14.57;;
56455;SDS011;42354;53.218;6.564;2023-05-07T13:03:35;18.90;;;15.55;;
56455;SDS011;42354;53.218;6.564;2023-05-07T13:06:02;19.33;;;15.48;;
56455;SDS011;42354;53.218;6.564;2023-05-07T13:08:32;18.23;;;14.02;;
56455;SDS011;42354;53.218;6.564;2023-05-07T13:11:00;18.08;;;14.60;;
56455;SDS011;42354;53.218;6.564;2023-05-07T13:13:30;17.70;;;15.05;;
56455;SDS011;42354;53.218;6.564;2023-05-07T13:15:56;17.80;;;14.57;;
56455;SDS011;42354;53.218;6.564;2023-05-07T13:18:21;16.90;;;14.02;;
56455;SDS011;42354;53.218;6.564;2023-05-07T13:20:47;20.17;;;15.02;;
56455;SDS011;42354;53.218;6.564;2023-05-07T13:23:12;20.42;;;15.05;;
56455;SDS011;42354;53.218;6.564;2023-05-07T13:25:37;16.45;;;14.52;;
56455;SDS011;42354;53.218;6.564;2023-05-07T13:28:03;19.25;;;15.30;;
56455;SDS011;42354;53.218;6.564;2023-05-07T13:30:30;17.98;;;15.90;;
56455;SDS011;42354;53.218;6.564;2023-05-07T13:32:55;20.33;;;16.30;;
56455;SDS011;42354;53.218;6.564;2023-05-07T13:35:21;19.35;;;15.68;;
56455;SDS011;42354;53.218;6.564;2023-05-07T13:37:48;20.65;;;15.65;;
56455;SDS011;42354;53.218;6.564;2023-05-07T13:40:14;19.42;;;15.90;;
56455;SDS011;42354;53.218;6.564;2023-05-07T13:42:40;19.75;;;16.38;;
56455;SDS011;42354;53.218;6.564;2023-05-07T13:45:06;18.85;;;16.85;;
56455;SDS011;42354;53.218;6.564;2023-05-07T13:47:32;18.23;;;15.65;;
56455;SDS011;42354;53.218;6.564;2023-05-07T13:49:57;21.58;;;16.42;;
56455;SDS011;42354;53.218;6.564;2023-05-07T13:52:23;17.35;;;15.55;;
56455;SDS011;42354;53.218;6.564;2023-05-07T13:54:48;21.92;;;15.80;;
56455;SDS011;42354;53.218;6.564;2023-05-07T13:57:14;16.23;;;14.02;;
56455;SDS011;42354;53.218;6.564;2023-05-07T13:59:40;16.35;;;14.27;;
56455;SDS011;42354;53.218;6.564;2023-05-07T14:02:06;18.27;;;14.60;;
56455;SDS011;42354;53.218;6.564;2023-05-07T14:04:31;16.67;;;14.50;;
56455;SDS011;42354;53.218;6.564;2023-05-07T14:06:57;16.73;;;13.80;;
56455;SDS011;42354;53.218;6.564;2023-05-07T14:09:22;16.05;;;13.77;;
56455;SDS011;42354;53.218;6.564;2023-05-07T14:11:49;14.98;;;12.55;;
56455;SDS011;42354;53.218;6.564;2023-05-07T14:14:16;17.60;;;14.70;;
56455;SDS011;42354;53.218;6.564;2023-05-07T14:16:45;16.45;;;14.52;;
56455;SDS011;42354;53.218;6.564;2023-05-07T14:19:13;15.88;;;14.18;;
56455;SDS011;42354;53.218;6.564;2023-05-07T14:21:38;18.92;;;15.27;;
56455;SDS011;42354;53.218;6.564;2023-05-07T14:24:06;16.27;;;14.52;;
56455;SDS011;42354;53.218;6.564;2023-05-07T14:26:32;17.90;;;14.90;;
56455;SDS011;42354;53.218;6.564;2023-05-07T14:28:58;16.67;;;14.05;;
56455;SDS011;42354;53.218;6.564;2023-05-07T14:31:23;17.75;;;14.27;;
56455;SDS011;42354;53.218;6.564;2023-05-07T14:33:49;18.85;;;14.45;;
56455;SDS011;42354;53.218;6.564;2023-05-07T14:36:16;16.95;;;15.15;;
56455;SDS011;42354;53.218;6.564;2023-05-07T14:38:42;18.02;;;14.48;;
56455;SDS011;42354;53.218;6.564;2023-05-07T14:41:07;16.60;;;14.38;;
56455;SDS011;42354;53.218;6.564;2023-05-07T14:43:34;15.70;;;13.32;;